Rejestracja

Wszystkie dane podawane są w czasie UTC za wyjątkiem miejsc gdzie jest jednoznacznie podane, że jest inaczej. Dane podawane w serwisie mają charakter informacyjny!!!
Informacje w sprawie dostępu do serwisu pod numerem tel. +48 22 68-28-138, CA MON (828-138)!!!
W związku z pracami remontowymi w SSH SZ RP mogą wystąpić problemy z obiegiem informacji meteorologicznej do dnia 30.10.2014r.
W tych przypadkach niezbędne informacje meteorologiczne udzielane będą pod nr tel. (22) 6828-230.

Aktualna Pogoda
 
Pogoda w Polsce
6°C Szczecin -1°C Suwałki 2°C Warszawa 6°C Poznan
5°C Opole 4°C Kraków 2°C Rzeszów
Więcej miast w Polsce

Pogoda w Europie
7°C Berlin 13°C Paryz 12°C Bruksela 12°C Oslo
9°C Praga 9°C Zagrzeb
Więcej miast w Europie

Metary wojskowe test
METAR EPBC 241500Z 11008KT CAVOK 04/M07 Q1029=
METAR EPCE 241630Z 14007KT CAVOK 04/M00 Q1025 RMK 040 074 0/0=
METAR EPDA 241630Z 15007KT 120V180 9999 SCT146 07/03 Q1024 RMK 065 081 4/4=
METAR EPDE 241630Z 08006KT CAVOK M01/M05 Q1029 RMK M013 076 0/0=
METAR EPIR 241630Z 10010KT CAVOK 01/M02 Q1027 RMK 014 079 3/3=
METAR EPKS 241630Z 09006KT CAVOK 04/02 Q1026 RMK 040 084 2/2=
METAR EPLK 241630Z 11007KT CAVOK 02/M03 Q1027 RMK 015 073 1/1=
METAR EPLY 241630Z 10004KT CAVOK 01/M02 Q1028 RMK 014 080 1/1=
METAR EPMB 241630Z 12004KT CAVOK 01/M04 Q1028 RMK 007 068 1/1=
METAR EPMI 241630Z 13005KT CAVOK 06/03 Q1025 RMK 055 085 2/2=
METAR EPMM 241630Z 09006KT CAVOK M03/M08 Q1030 RMK M026 065 0/0=
METAR EPNA 241300Z 13010KT 9999 SCT200 08/02 Q1025 RMK 082 066 3/3=
METAR EPOK 241630Z 16015KT CAVOK 04/M02 Q1026 RMK 044 064 2/2=
METAR EPPR 241630Z 16002KT 02/M01 Q1027 RMK 015 082 4/4=
METAR EPPW 241630Z 10006KT CAVOK 03/M02 Q1026 RMK 033 070 3/3=
METAR EPSN 241630Z 13006KT CAVOK 06/04 Q1024 RMK 057 087 1/1=
METAR EPTM 241630Z 07004KT CAVOK 01/M02 Q1027 RMK 005 080 2/2=


 
Informacje ogólne
Pogoda
Warszawa
Temperatura: 1.9°C
Wiatr: 5.0 m/s
Ciśnienie: 1030.3 hPa
Zjawiska: Brak
Temp. max: 5.0 °C
Temp. min: -2.6 °C


Dane astronomiczne
Warszawa:
Dzien: 10:07 h
Noc: 13:53 h


Using HW VSP powered by HW group.

Prawa autorskie©2007 SSH SZ RP. Wszelkie prawa zastrzeżone.